Portada
METAR-TAF:

METAR-TAF

Aeroports :

Port Harcourt, Nigèria

latitud: 04-51N, longitud: 007-01E, altitud: 18 m

Observació

L'informe es va fer fa 4 hores i 36 minuts, a les 15:00 UTC
Vent 3 kt del Nord/Nord-Est
Temperatura 35°C
Humitat 37%
Pressió 1007 hPa
Visibilitat: 2000 m
calitja

METAR: DNPO 221500Z 03003KT 2000 HZ NSC 35/18 Q1007 NOSIG

Hora: 20:36 (19:36 UTC)

Pronòstic

L'informe es va fer fa 2 hores i 36 minuts, a les 17:00 UTC
Pronòstic vàlid del 22 a les 18 UTC al 23 a les 24 UTC
Vent 2 kt amb direcció variable
Visibilitat: 1500 m
calitja, boirina
Probabilitat 30%
l' 23 a les 04 UTC al 23 a les 07 UTC
Visibilitat: 0800 m
a una alçada de 400 ft
boira
Evolucionant progressivament
l' 23 a les 08 UTC al 23 a les 10 UTC
Vent 10 kt del Oest/Nord-Oest
Visibilitat: 5000 m

TAF: DNPO 221700Z 2218/2324 VRB02KT 3000 HZ NSC TENPO 2303/2308 1500 BR PROB30 2304/2307 0800 FG VV004 BECMG 2308/2310 30010KT 5000

Observacions i pronòstics meteorològics de més de 4000 aeroports (METAR i TAF).

Les estacions disponibles són els punts grocs i vermells al mapa.

Posi el ratolí al punt desitjat per veure el nom de l'estació.

Feu clic per veure les observacions i els pronòstics meteorològics.

Per canviar el mapa: feu clic els botons verds amb una creu de color negre per apropar; al botó verd amb un guió per allunyar la imatge; o en les fletxes verdes per a mapes adjacents.


METAR-TAF: